Time;durP1;ratioP1;P1;durP2;ratioP2;P2;SDS_P1;SDS_P2;PMS_P1;PMS_P2;Temp;Humidity;BMP_temperature;BMP_pressure;BME280_temperature;BME280_humidity;BME280_pressure;Samples;Min_cycle;Max_cycle;Signal;HPM_P1;HPM_P2
2023/09/10 00:02:15;;;;;;;7.80;5.45;;;;;;;17.83;77.23;100591.41;5103872;28;20466;-68
2023/09/10 00:04:41;;;;;;;9.90;5.88;;;;;;;17.64;77.34;100562.31;5103726;28;20020;-68
2023/09/10 00:07:07;;;;;;;7.47;5.20;;;;;;;17.79;77.67;100585.44;5103786;28;20028;-68
2023/09/10 00:09:33;;;;;;;8.00;6.25;;;;;;;17.78;77.33;100575.81;5103757;28;20024;-68
2023/09/10 00:11:58;;;;;;;7.15;6.40;;;;;;;17.78;77.56;100578.44;5103698;28;20384;-68
2023/09/10 00:14:24;;;;;;;9.95;6.70;;;;;;;17.79;77.76;100582.81;5103704;28;20039;-67
2023/09/10 00:16:49;;;;;;;7.50;6.32;;;;;;;17.81;78.28;100580.13;5107644;28;20044;-68
2023/09/10 00:19:15;;;;;;;10.43;5.95;;;;;;;17.77;78.65;100584.63;5107690;28;20020;-67
2023/09/10 00:21:41;;;;;;;7.32;5.53;;;;;;;17.75;78.95;100589.06;5107349;28;20047;-68
2023/09/10 00:24:08;;;;;;;8.15;6.50;;;;;;;17.73;79.30;100590.91;5107389;28;20130;-68
2023/09/10 00:26:34;;;;;;;7.70;5.97;;;;;;;17.69;79.42;100576.16;5107417;28;20019;-68
2023/09/10 00:28:59;;;;;;;8.70;6.40;;;;;;;17.68;79.54;100582.31;5107607;28;20046;-69
2023/09/10 00:31:24;;;;;;;6.50;5.88;;;;;;;17.68;79.92;100579.69;5106758;28;20020;-68
2023/09/10 00:33:50;;;;;;;10.00;6.82;;;;;;;17.66;80.03;100582.38;5107182;28;20024;-69
2023/09/10 00:36:15;;;;;;;9.50;7.38;;;;;;;17.69;80.22;100587.53;5107225;28;20024;-68
2023/09/10 00:38:41;;;;;;;8.70;6.78;;;;;;;17.68;80.02;100585.78;5089167;28;20422;-68
2023/09/10 00:41:07;;;;;;;10.23;6.70;;;;;;;17.67;79.71;100586.72;5107118;28;20024;-68
2023/09/10 00:43:33;;;;;;;8.35;6.88;;;;;;;17.65;80.01;100585.91;5107002;28;20028;-68
2023/09/10 00:45:59;;;;;;;8.68;7.45;;;;;;;17.69;79.74;100591.91;5088268;28;20042;-68
2023/09/10 00:48:25;;;;;;;8.77;7.60;;;;;;;17.69;79.89;100582.28;5107174;28;20023;-68
2023/09/10 00:50:51;;;;;;;11.10;7.55;;;;;;;17.78;80.34;100585.47;5107171;28;20075;-68
2023/09/10 00:53:18;;;;;;;9.60;7.18;;;;;;;17.79;80.19;100584.56;5088399;28;20109;-68
2023/09/10 00:55:45;;;;;;;11.00;7.72;;;;;;;17.79;80.56;100588.06;5106931;28;20032;-68
2023/09/10 00:58:10;;;;;;;9.63;6.90;;;;;;;17.75;80.52;100585.59;5106802;28;20024;-69
2023/09/10 01:00:37;;;;;;;18.83;8.23;;;;;;;17.75;80.26;100586.44;5106408;28;20045;-68
2023/09/10 01:03:03;;;;;;;10.73;8.35;;;;;;;17.75;80.32;100591.69;5106991;28;20047;-68
2023/09/10 01:05:32;;;;;;;13.15;7.90;;;;;;;17.66;80.53;100574.50;5088499;28;20042;-68
2023/09/10 01:07:57;;;;;;;15.55;8.55;;;;;;;17.76;80.60;100589.94;5106535;28;20024;-68
2023/09/10 01:10:29;;;;;;;8.63;7.00;;;;;;;17.70;80.50;100586.59;5088068;28;20476;-68
2023/09/10 01:12:57;;;;;;;12.38;8.32;;;;;;;17.73;80.46;100588.28;5106519;28;20115;-68
2023/09/10 01:15:35;;;;;;;14.10;7.70;;;;;;;17.71;80.96;100582.22;5105967;28;20048;-68
2023/09/10 01:18:00;;;;;;;14.75;8.82;;;;;;;17.69;81.34;100581.41;5106391;28;20016;-68
2023/09/10 01:20:41;;;;;;;11.00;7.55;;;;;;;17.68;80.85;100584.94;5106240;28;20038;-68
2023/09/10 01:23:15;;;;;;;11.57;7.43;;;;;;;17.65;81.19;100585.06;5106481;28;20024;-68
2023/09/10 01:25:41;;;;;;;11.95;8.70;;;;;;;17.67;81.07;100577.97;5106466;28;20038;-68
2023/09/10 01:28:06;;;;;;;9.82;7.68;;;;;;;17.65;81.12;100566.69;5105188;28;20107;-67
2023/09/10 01:30:32;;;;;;;10.80;8.18;;;;;;;17.66;81.50;100568.38;5087533;28;20040;-67
2023/09/10 01:33:21;;;;;;;14.20;9.27;;;;;;;17.69;81.41;100566.50;5087718;28;20031;-68
2023/09/10 01:36:00;;;;;;;10.05;8.52;;;;;;;17.69;81.77;100579.66;5087956;28;20055;-67
2023/09/10 01:38:35;;;;;;;8.88;8.02;;;;;;;17.65;81.65;100567.53;5106131;28;20031;-69
2023/09/10 01:41:11;;;;;;;10.07;7.72;;;;;;;17.59;81.72;100567.75;5105986;28;20027;-68
2023/09/10 01:43:37;;;;;;;10.43;8.45;;;;;;;17.55;81.75;100568.78;5106025;28;20027;-68
2023/09/10 01:46:04;;;;;;;11.30;8.43;;;;;;;17.53;82.35;100570.59;5105396;28;20099;-69
2023/09/10 01:48:30;;;;;;;14.43;9.55;;;;;;;17.45;82.84;100574.34;5105934;28;20027;-69
2023/09/10 01:50:55;;;;;;;11.75;8.15;;;;;;;17.41;83.08;100569.25;5087545;28;20020;-69
2023/09/10 01:53:22;;;;;;;10.35;8.30;;;;;;;17.33;82.96;100561.66;5105387;28;20495;-68
2023/09/10 01:55:48;;;;;;;15.65;8.48;;;;;;;17.30;82.80;100570.47;5105840;28;20035;-69
2023/09/10 01:58:13;;;;;;;9.82;7.72;;;;;;;17.27;82.85;100567.94;5105761;28;20032;-68
2023/09/10 02:00:39;;;;;;;8.80;7.07;;;;;;;17.25;82.51;100575.03;5105181;28;20019;-68
2023/09/10 02:03:05;;;;;;;10.00;7.80;;;;;;;17.25;82.80;100580.28;5087182;28;20022;-68
2023/09/10 02:05:30;;;;;;;13.55;8.02;;;;;;;17.21;82.70;100578.66;5087210;28;20103;-69
2023/09/10 02:07:56;;;;;;;9.00;7.80;;;;;;;17.18;82.25;100565.63;5105524;28;20024;-68
2023/09/10 02:10:21;;;;;;;15.55;8.57;;;;;;;17.17;82.28;100563.94;5105498;28;20483;-68
2023/09/10 02:12:46;;;;;;;10.10;7.03;;;;;;;17.20;82.15;100569.09;5105638;28;20161;-68
2023/09/10 02:15:12;;;;;;;15.60;8.90;;;;;;;17.20;82.45;100566.47;5087236;28;20089;-68
2023/09/10 02:17:38;;;;;;;14.48;8.75;;;;;;;17.22;82.49;100565.47;5105603;28;20034;-68
2023/09/10 02:20:09;;;;;;;27.85;9.07;;;;;;;17.25;82.70;100563.69;5105028;28;20020;-68
2023/09/10 02:22:35;;;;;;;9.98;8.80;;;;;;;17.24;82.72;100559.34;5105390;28;20024;-68
2023/09/10 02:25:02;;;;;;;9.07;8.15;;;;;;;17.28;82.63;100572.31;5105449;28;20028;-68
2023/09/10 02:27:28;;;;;;;11.23;8.30;;;;;;;17.19;82.10;100547.22;5105007;28;20028;-68
2023/09/10 02:29:53;;;;;;;15.02;9.18;;;;;;;17.27;82.05;100562.69;5104590;28;20119;-68
2023/09/10 02:32:18;;;;;;;11.43;8.35;;;;;;;17.27;82.03;100557.47;5105332;28;20027;-68
2023/09/10 02:34:44;;;;;;;9.32;7.65;;;;;;;17.30;81.95;100559.97;5105031;28;20487;-68
2023/09/10 02:37:09;;;;;;;14.52;8.90;;;;;;;17.31;81.95;100556.47;5086831;28;20024;-68
2023/09/10 02:39:34;;;;;;;14.60;8.65;;;;;;;17.32;81.66;100558.16;5104904;28;20085;-68
2023/09/10 02:42:00;;;;;;;13.68;8.65;;;;;;;17.29;81.77;100560.03;5104784;28;20399;-68
2023/09/10 02:44:25;;;;;;;12.13;8.98;;;;;;;17.28;81.80;100555.69;5104944;28;20016;-69
2023/09/10 02:46:52;;;;;;;8.93;7.65;;;;;;;17.27;81.67;100570.56;5104444;28;20028;-68
2023/09/10 02:49:17;;;;;;;10.20;8.63;;;;;;;17.23;81.79;100563.72;5104503;28;20666;-68
2023/09/10 02:51:43;;;;;;;11.70;9.32;;;;;;;17.18;81.72;100565.63;5104203;28;20024;-68
2023/09/10 02:54:08;;;;;;;11.63;8.35;;;;;;;17.18;81.65;100568.25;5104314;28;20118;-68
2023/09/10 02:56:33;;;;;;;9.65;8.05;;;;;;;17.16;81.85;100567.44;5104472;28;20075;-69
2023/09/10 02:58:59;;;;;;;9.75;8.30;;;;;;;17.19;81.68;100575.22;5104392;28;20024;-68
2023/09/10 03:01:24;;;;;;;13.18;9.05;;;;;;;17.22;81.71;100575.16;5104095;28;20026;-68
2023/09/10 03:03:50;;;;;;;14.85;9.63;;;;;;;17.24;81.62;100578.56;5086313;28;20085;-68
2023/09/10 03:06:15;;;;;;;11.02;9.52;;;;;;;17.27;81.88;100570.56;5104418;28;20032;-69
2023/09/10 03:08:42;;;;;;;14.85;8.93;;;;;;;17.29;81.76;100567.91;5104686;28;20024;-69
2023/09/10 03:11:09;;;;;;;13.60;8.38;;;;;;;17.36;81.46;100568.56;5104341;28;20032;-69
2023/09/10 03:13:34;;;;;;;13.60;9.95;;;;;;;17.31;81.61;100564.34;5086065;28;20073;-68
2023/09/10 03:15:59;;;;;;;10.20;8.27;;;;;;;17.32;81.52;100568.66;5104264;28;20024;-69
2023/09/10 03:18:25;;;;;;;10.43;8.10;;;;;;;17.31;81.19;100559.09;5086030;28;20020;-69
2023/09/10 03:20:50;;;;;;;16.88;10.10;;;;;;;17.24;80.83;100557.56;5104290;28;20069;-69
2023/09/10 03:23:16;;;;;;;13.52;8.70;;;;;;;17.24;81.18;100560.19;5104355;28;20024;-70
2023/09/10 03:25:42;;;;;;;13.27;9.40;;;;;;;17.22;81.17;100557.63;5104169;28;20044;-68
2023/09/10 03:28:07;;;;;;;11.30;9.90;;;;;;;17.19;81.23;100567.34;5104252;28;20023;-68
2023/09/10 03:30:33;;;;;;;10.48;9.48;;;;;;;17.02;81.14;100544.28;5103682;28;20016;-68
2023/09/10 03:32:58;;;;;;;10.88;9.50;;;;;;;17.08;80.77;100568.56;5104092;28;20024;-69
2023/09/10 03:35:23;;;;;;;10.98;9.30;;;;;;;17.04;81.11;100569.56;5103885;28;20476;-69
2023/09/10 03:37:49;;;;;;;12.55;9.32;;;;;;;16.85;80.92;100543.91;5104107;28;20035;-69
2023/09/10 03:40:14;;;;;;;17.55;9.82;;;;;;;16.94;81.14;100555.03;5103822;28;20024;-69
2023/09/10 03:42:40;;;;;;;11.27;10.10;;;;;;;16.93;81.11;100558.56;5104014;28;20034;-68
2023/09/10 03:45:06;;;;;;;14.85;9.73;;;;;;;16.91;81.51;100553.38;5104052;28;20020;-69
2023/09/10 03:47:33;;;;;;;13.70;10.90;;;;;;;16.95;81.60;100556.72;5104009;28;20012;-68
2023/09/10 03:49:59;;;;;;;17.63;10.77;;;;;;;16.93;82.57;100563.81;5104721;28;20077;-68
2023/09/10 03:52:25;;;;;;;14.60;10.13;;;;;;;16.90;83.03;100563.91;5107942;28;20024;-69
2023/09/10 03:54:50;;;;;;;14.82;10.63;;;;;;;16.96;83.04;100566.34;5107863;28;20044;-69
2023/09/10 03:57:15;;;;;;;18.67;11.73;;;;;;;16.94;83.49;100568.13;5107991;28;20016;-69
2023/09/10 03:59:41;;;;;;;15.02;11.45;;;;;;;16.96;84.28;100572.41;5107784;28;20019;-69
2023/09/10 04:02:06;;;;;;;15.50;11.95;;;;;;;16.98;85.17;100577.63;5107778;28;20044;-69
2023/09/10 04:04:33;;;;;;;18.92;11.50;;;;;;;16.97;85.63;100568.03;5089671;28;20085;-69
2023/09/10 04:06:58;;;;;;;18.83;11.80;;;;;;;16.98;86.83;100564.53;5089576;28;20055;-69
2023/09/10 04:09:24;;;;;;;17.75;12.77;;;;;;;17.01;86.94;100582.78;5107801;28;20023;-68
2023/09/10 04:11:49;;;;;;;16.77;13.85;;;;;;;17.05;86.99;100575.66;5089528;28;20059;-69
2023/09/10 04:14:15;;;;;;;24.48;14.70;;;;;;;17.04;87.65;100580.06;5107892;28;20028;-68
2023/09/10 04:16:40;;;;;;;19.83;14.55;;;;;;;17.12;87.56;100576.34;5107777;28;20020;-68
2023/09/10 04:19:05;;;;;;;26.25;15.23;;;;;;;17.17;87.88;100588.38;5107808;28;20153;-68
2023/09/10 04:21:31;;;;;;;19.05;14.48;;;;;;;17.26;87.98;100583.75;5107824;28;20048;-68
2023/09/10 04:23:56;;;;;;;24.10;14.48;;;;;;;17.37;87.09;100583.38;5106319;28;20054;-69
2023/09/10 04:26:21;;;;;;;22.17;15.68;;;;;;;17.44;86.14;100577.84;5107565;28;20214;-69
2023/09/10 04:28:47;;;;;;;21.65;15.35;;;;;;;17.49;86.26;100590.84;5107643;28;20016;-69
2023/09/10 04:31:19;;;;;;;21.20;16.10;;;;;;;17.55;85.72;100585.38;5089017;28;20028;-69
2023/09/10 04:33:44;;;;;;;23.92;17.48;;;;;;;17.61;85.49;100586.06;5107520;28;20083;-69
2023/09/10 04:36:10;;;;;;;25.65;17.30;;;;;;;17.57;85.00;100578.28;5107475;28;20031;-69
2023/09/10 04:38:35;;;;;;;30.65;16.77;;;;;;;17.59;85.15;100584.34;5089346;28;20031;-69
2023/09/10 04:41:01;;;;;;;20.23;16.50;;;;;;;17.64;85.17;100588.56;5107483;28;20126;-68
2023/09/10 04:43:27;;;;;;;26.38;17.33;;;;;;;17.65;84.65;100593.78;5107410;28;20080;-69
2023/09/10 04:45:52;;;;;;;34.78;19.92;;;;;;;17.65;84.51;100593.78;5088679;28;20052;-69
2023/09/10 04:48:18;;;;;;;31.08;19.15;;;;;;;17.65;84.81;100587.69;5107262;28;20016;-69
2023/09/10 04:50:44;;;;;;;28.70;18.75;;;;;;;17.66;84.52;100592.88;5107145;28;20028;-69
2023/09/10 04:53:10;;;;;;;25.15;19.02;;;;;;;17.70;84.79;100598.84;5106862;28;20060;-69
2023/09/10 04:55:35;;;;;;;29.33;19.38;;;;;;;17.61;84.29;100580.81;5089046;28;20024;-70
2023/09/10 04:58:01;;;;;;;31.10;19.67;;;;;;;17.76;84.50;100601.28;5107141;28;20055;-68
2023/09/10 05:00:26;;;;;;;30.67;18.42;;;;;;;17.75;84.42;100599.56;5106561;28;20034;-69
2023/09/10 05:02:52;;;;;;;26.08;19.05;;;;;;;17.74;84.49;100589.97;5088761;28;20024;-69
2023/09/10 05:05:17;;;;;;;40.85;20.75;;;;;;;17.72;84.14;100594.41;5106933;28;20058;-69
2023/09/10 05:07:42;;;;;;;29.20;19.38;;;;;;;17.76;84.10;100600.44;5106856;28;20058;-69
2023/09/10 05:10:10;;;;;;;39.78;20.48;;;;;;;17.75;84.28;100604.81;5106825;28;20318;-69
2023/09/10 05:12:35;;;;;;;32.65;18.10;;;;;;;17.75;84.33;100601.34;5088592;28;20020;-69
2023/09/10 05:15:01;;;;;;;34.85;20.30;;;;;;;17.75;84.13;100607.44;5106510;28;20022;-69
2023/09/10 05:17:26;;;;;;;30.63;18.15;;;;;;;17.75;84.63;100609.22;5106651;28;20088;-69
2023/09/10 05:19:51;;;;;;;30.23;21.05;;;;;;;17.65;84.70;100598.19;5088402;28;20016;-71
2023/09/10 05:22:17;;;;;;;33.50;19.50;;;;;;;17.74;84.62;100620.63;5105220;28;20015;-69
2023/09/10 05:24:42;;;;;;;38.78;19.23;;;;;;;17.69;84.86;100619.03;5106430;28;20053;-69
2023/09/10 05:27:07;;;;;;;27.58;18.63;;;;;;;17.69;84.81;100616.41;5106497;28;20020;-69
2023/09/10 05:29:33;;;;;;;30.77;18.85;;;;;;;17.66;85.03;100619.13;5106496;28;20449;-69
2023/09/10 05:31:58;;;;;;;25.13;16.40;;;;;;;17.64;85.49;100615.69;5088037;28;20024;-69
2023/09/10 05:34:23;;;;;;;29.45;16.50;;;;;;;17.70;85.04;100627.75;5106362;28;20057;-68
2023/09/10 05:36:50;;;;;;;23.73;16.45;;;;;;;17.78;85.07;100617.81;5106413;28;20024;-69
2023/09/10 05:39:15;;;;;;;40.70;17.45;;;;;;;17.78;84.88;100620.47;5088075;28;20023;-70
2023/09/10 05:41:41;;;;;;;38.00;18.75;;;;;;;17.79;84.81;100616.94;5106144;28;20025;-70
2023/09/10 05:44:06;;;;;;;36.95;16.83;;;;;;;17.82;84.54;100611.56;5106413;28;20024;-69
2023/09/10 05:46:33;;;;;;;46.03;19.58;;;;;;;17.87;84.75;100615.78;5087587;28;20031;-69
2023/09/10 05:48:58;;;;;;;37.40;19.00;;;;;;;17.92;84.51;100619.97;5106172;28;20023;-70
2023/09/10 05:51:23;;;;;;;30.42;18.80;;;;;;;17.93;84.58;100623.44;5105977;28;20132;-68
2023/09/10 05:53:49;;;;;;;43.97;18.13;;;;;;;18.00;84.56;100626.72;5105667;28;20518;-69
2023/09/10 05:56:14;;;;;;;40.47;18.13;;;;;;;18.00;84.23;100619.72;5105977;28;20024;-70
2023/09/10 05:58:40;;;;;;;52.42;18.40;;;;;;;17.95;84.26;100627.75;5105814;28;20051;-69
2023/09/10 06:01:05;;;;;;;33.88;17.25;;;;;;;18.03;84.69;100637.97;5105461;28;20020;-69
2023/09/10 06:03:30;;;;;;;42.53;17.05;;;;;;;18.04;84.23;100634.44;5087517;28;20047;-68
2023/09/10 06:06:01;;;;;;;35.67;15.13;;;;;;;18.04;84.02;100636.19;5105867;28;20024;-69
2023/09/10 06:08:27;;;;;;;30.05;15.38;;;;;;;17.93;84.42;100626.94;5087390;28;20020;-69
2023/09/10 06:10:52;;;;;;;25.98;14.35;;;;;;;17.95;84.20;100640.88;5087260;28;20492;-69
2023/09/10 06:13:17;;;;;;;31.35;15.95;;;;;;;17.94;84.43;100633.03;5104960;28;20050;-68
2023/09/10 06:15:43;;;;;;;38.38;16.00;;;;;;;17.89;84.55;100630.56;5087108;28;20114;-69
2023/09/10 06:18:08;;;;;;;29.95;16.13;;;;;;;17.91;84.34;100638.41;5087291;28;20072;-69
2023/09/10 06:20:34;;;;;;;26.88;14.30;;;;;;;17.92;84.46;100642.75;5105512;28;20028;-69
2023/09/10 06:22:59;;;;;;;24.73;14.85;;;;;;;17.89;84.56;100641.06;5087063;28;20115;-69
2023/09/10 06:25:25;;;;;;;25.77;15.10;;;;;;;17.89;84.64;100646.34;5105404;28;20028;-70
2023/09/10 06:27:50;;;;;;;31.83;14.75;;;;;;;17.92;84.23;100640.97;5105217;28;20020;-68
2023/09/10 06:30:16;;;;;;;24.17;12.38;;;;;;;17.90;84.50;100641.94;5104925;28;20027;-69
2023/09/10 06:32:41;;;;;;;23.98;13.55;;;;;;;17.89;84.76;100624.47;5104851;28;20043;-68
2023/09/10 06:35:07;;;;;;;29.63;14.27;;;;;;;17.92;84.90;100634.88;5105004;28;20024;-70
2023/09/10 06:37:32;;;;;;;29.42;13.85;;;;;;;17.93;85.01;100639.22;5105012;28;20024;-68
2023/09/10 06:39:58;;;;;;;32.10;14.32;;;;;;;17.95;85.03;100645.28;5105170;28;20039;-68
2023/09/10 06:42:24;;;;;;;34.45;14.05;;;;;;;17.94;85.14;100643.53;5105003;28;20028;-69
2023/09/10 06:44:49;;;;;;;25.95;12.77;;;;;;;17.88;85.35;100631.50;5105126;28;20035;-69
2023/09/10 06:47:14;;;;;;;27.70;14.70;;;;;;;17.91;85.24;100634.00;5104698;28;20127;-69
2023/09/10 06:49:39;;;;;;;27.15;13.48;;;;;;;17.91;85.51;100638.41;5105081;28;20024;-69
2023/09/10 06:52:05;;;;;;;27.85;14.27;;;;;;;17.98;85.14;100633.78;5104791;28;20088;-68
2023/09/10 06:54:32;;;;;;;23.38;13.05;;;;;;;17.99;85.49;100635.53;5104671;28;20507;-69
2023/09/10 06:57:01;;;;;;;29.88;14.55;;;;;;;18.05;84.98;100645.81;5104924;28;20020;-68
2023/09/10 06:59:27;;;;;;;26.98;13.23;;;;;;;17.96;85.17;100632.09;5086707;28;20034;-68
2023/09/10 07:01:52;;;;;;;28.80;13.73;;;;;;;17.97;85.85;100646.09;5104528;28;20020;-69
2023/09/10 07:04:23;;;;;;;22.15;13.55;;;;;;;17.99;85.77;100646.88;5104861;28;20026;-69
2023/09/10 07:06:50;;;;;;;21.15;13.20;;;;;;;18.01;85.34;100639.81;5104591;28;20017;-67
2023/09/10 07:09:21;;;;;;;27.35;13.57;;;;;;;18.03;85.70;100635.34;5104799;28;20020;-69
2023/09/10 07:11:51;;;;;;;25.83;13.02;;;;;;;18.06;85.43;100640.50;5086241;28;20024;-69
2023/09/10 07:14:17;;;;;;;25.83;13.25;;;;;;;18.09;85.17;100652.66;5104683;28;20043;-69
2023/09/10 07:16:44;;;;;;;18.40;11.48;;;;;;;18.09;85.21;100653.53;5104315;28;20028;-68
2023/09/10 07:19:09;;;;;;;23.65;12.52;;;;;;;18.11;85.04;100663.09;5104515;28;20116;-68
2023/09/10 07:21:35;;;;;;;28.05;14.82;;;;;;;18.05;84.80;100670.28;5104370;28;20045;-68
2023/09/10 07:24:02;;;;;;;18.60;12.27;;;;;;;18.06;84.95;100668.53;5103959;28;20035;-69
2023/09/10 07:26:28;;;;;;;30.73;13.75;;;;;;;18.03;85.00;100664.25;5103672;28;20052;-68
2023/09/10 07:28:53;;;;;;;23.55;12.10;;;;;;;17.98;84.92;100676.69;5104455;28;20032;-67
2023/09/10 07:31:19;;;;;;;25.58;14.23;;;;;;;17.98;84.90;100679.31;5103894;28;20070;-68
2023/09/10 07:33:44;;;;;;;28.83;13.38;;;;;;;17.96;85.18;100679.38;5104388;28;20023;-69
2023/09/10 07:36:09;;;;;;;19.48;11.90;;;;;;;18.00;85.30;100680.13;5104361;28;20028;-68
2023/09/10 07:38:35;;;;;;;21.63;12.27;;;;;;;18.00;85.17;100674.88;5086159;28;20031;-69
2023/09/10 07:41:00;;;;;;;25.42;13.02;;;;;;;18.02;85.18;100680.91;5103983;28;20478;-69
2023/09/10 07:43:25;;;;;;;19.50;11.45;;;;;;;18.05;85.38;100680.78;5104348;28;20024;-69
2023/09/10 07:45:51;;;;;;;21.75;11.25;;;;;;;17.99;85.61;100682.81;5103953;28;20016;-69
2023/09/10 07:48:16;;;;;;;18.75;10.45;;;;;;;18.02;85.31;100678.28;5104362;28;20054;-69
2023/09/10 07:50:57;;;;;;;17.33;10.13;;;;;;;18.06;85.87;100689.53;5103974;28;20020;-69
2023/09/10 07:53:24;;;;;;;15.38;10.40;;;;;;;18.10;85.52;100691.13;5103835;28;20048;-69
2023/09/10 07:55:49;;;;;;;18.95;9.75;;;;;;;18.08;85.89;100691.19;5104199;28;20050;-68
2023/09/10 07:58:15;;;;;;;22.33;12.30;;;;;;;18.07;86.10;100700.00;5104149;28;20016;-69
2023/09/10 08:00:40;;;;;;;14.88;9.63;;;;;;;18.02;85.78;100699.28;5103808;28;20020;-70
2023/09/10 08:03:06;;;;;;;30.02;10.93;;;;;;;17.99;86.03;100706.44;5085949;28;20080;-68
2023/09/10 08:05:33;;;;;;;15.18;9.27;;;;;;;18.00;85.54;100703.75;5104202;28;20025;-68
2023/09/10 08:08:02;;;;;;;16.17;9.15;;;;;;;17.96;85.41;100689.00;5103938;28;20070;-69
2023/09/10 08:10:29;;;;;;;12.90;8.60;;;;;;;17.99;85.25;100702.03;5085788;28;20024;-70
2023/09/10 08:12:54;;;;;;;13.85;7.50;;;;;;;17.93;85.24;100694.38;5085455;28;20047;-68
2023/09/10 08:15:19;;;;;;;17.35;8.98;;;;;;;17.94;85.39;100696.06;5085608;28;20486;-69
2023/09/10 08:17:45;;;;;;;19.88;8.43;;;;;;;17.99;84.96;100702.03;5104060;28;20023;-69
2023/09/10 08:20:11;;;;;;;27.55;9.50;;;;;;;18.03;85.33;100698.41;5103898;28;20077;-69
2023/09/10 08:22:37;;;;;;;19.77;9.57;;;;;;;18.06;85.33;100695.66;5085543;28;20026;-69
2023/09/10 08:25:04;;;;;;;23.92;9.52;;;;;;;18.07;85.80;100702.63;5086071;28;20119;-68
2023/09/10 08:27:29;;;;;;;14.55;8.90;;;;;;;18.07;85.46;100693.88;5085558;28;20024;-69
2023/09/10 08:29:55;;;;;;;17.52;8.57;;;;;;;18.11;85.91;100692.00;5103900;28;20063;-69
2023/09/10 08:32:20;;;;;;;20.00;8.27;;;;;;;18.17;85.80;100695.31;5103575;28;20028;-69
2023/09/10 08:34:45;;;;;;;15.23;8.75;;;;;;;18.21;86.01;100685.56;5103907;28;20031;-68
2023/09/10 08:37:11;;;;;;;11.23;7.93;;;;;;;18.29;86.35;100696.63;5088220;28;20550;-68
2023/09/10 08:39:37;;;;;;;15.50;9.38;;;;;;;18.31;86.25;100701.81;5107536;28;20046;-69
2023/09/10 08:42:15;;;;;;;22.08;9.63;;;;;;;18.37;86.56;100703.38;5107179;28;20092;-70
2023/09/10 08:44:42;;;;;;;15.32;8.77;;;;;;;18.45;85.64;100703.97;5107451;28;20608;-68
2023/09/10 08:47:11;;;;;;;21.23;9.65;;;;;;;18.51;85.70;100721.28;5107060;28;20031;-68
2023/09/10 08:49:41;;;;;;;22.27;9.68;;;;;;;18.52;85.17;100722.97;5107221;28;20024;-69
2023/09/10 08:52:07;;;;;;;15.52;8.85;;;;;;;18.47;84.86;100723.16;5107238;28;20023;-69
2023/09/10 08:54:32;;;;;;;12.82;9.63;;;;;;;18.42;84.88;100719.81;5106862;28;20067;-69
2023/09/10 08:57:00;;;;;;;24.17;9.82;;;;;;;18.38;85.46;100715.59;5088673;28;20028;-69
2023/09/10 08:59:25;;;;;;;11.18;7.70;;;;;;;18.51;85.62;100721.28;5106906;28;20020;-69
2023/09/10 09:01:52;;;;;;;15.45;10.45;;;;;;;18.53;85.60;100724.72;5106510;28;20082;-69
2023/09/10 09:04:18;;;;;;;20.50;10.88;;;;;;;18.52;85.06;100723.84;5106794;28;20035;-69
2023/09/10 09:06:47;;;;;;;20.05;9.02;;;;;;;18.56;84.90;100729.88;5088516;28;20483;-69
2023/09/10 09:09:16;;;;;;;16.23;9.35;;;;;;;18.60;85.19;100734.06;5106784;28;20036;-69
2023/09/10 09:11:42;;;;;;;14.20;9.70;;;;;;;18.68;84.89;100728.53;5106584;28;20020;-69
2023/09/10 09:14:09;;;;;;;14.38;9.82;;;;;;;18.70;84.52;100722.31;5106750;28;20119;-68
2023/09/10 09:16:38;;;;;;;26.88;11.07;;;;;;;18.63;84.13;100712.94;5106505;28;20016;-70
2023/09/10 09:19:10;;;;;;;21.10;9.95;;;;;;;18.61;84.11;100716.53;5106625;28;20035;-69
2023/09/10 09:21:39;;;;;;;17.00;10.63;;;;;;;18.56;84.23;100720.19;5088175;28;20035;-70
2023/09/10 09:24:07;;;;;;;28.75;9.85;;;;;;;18.59;84.19;100727.13;5088268;28;20027;-70
2023/09/10 09:26:34;;;;;;;22.92;11.60;;;;;;;18.64;84.03;100734.84;5106661;28;20024;-70
2023/09/10 09:29:00;;;;;;;17.65;10.65;;;;;;;18.58;84.38;100726.25;5106603;28;20038;-70
2023/09/10 09:31:25;;;;;;;16.40;9.48;;;;;;;18.56;83.93;100730.69;5106085;28;20118;-69
2023/09/10 09:33:52;;;;;;;18.08;9.55;;;;;;;18.49;83.82;100723.09;5106440;28;20024;-71
2023/09/10 09:36:17;;;;;;;19.42;9.52;;;;;;;18.50;83.44;100728.28;5106602;28;20028;-69
2023/09/10 09:38:47;;;;;;;15.00;8.63;;;;;;;18.50;83.55;100730.94;5106306;28;20032;-69
2023/09/10 09:41:16;;;;;;;16.27;9.73;;;;;;;18.47;83.48;100723.16;5106076;28;20028;-69
2023/09/10 09:43:42;;;;;;;29.38;9.77;;;;;;;18.47;83.74;100728.41;5088013;28;20042;-70
2023/09/10 09:46:08;;;;;;;25.85;10.60;;;;;;;18.39;84.04;100726.06;5106007;28;20083;-70
2023/09/10 09:48:34;;;;;;;16.52;7.50;;;;;;;18.41;83.64;100726.88;5105336;28;20027;-70
2023/09/10 09:51:01;;;;;;;14.40;8.57;;;;;;;18.42;83.93;100727.72;5105968;28;20020;-70
2023/09/10 09:53:28;;;;;;;14.38;8.38;;;;;;;18.40;83.88;100724.31;5105825;28;20069;-70
2023/09/10 09:56:05;;;;;;;14.45;8.63;;;;;;;18.41;83.60;100726.00;5106106;28;20075;-69
2023/09/10 09:58:31;;;;;;;15.60;9.63;;;;;;;18.40;84.03;100724.31;5105927;28;20012;-70
2023/09/10 10:00:57;;;;;;;15.32;9.52;;;;;;;18.46;83.89;100726.69;5105569;28;20035;-70
2023/09/10 10:03:22;;;;;;;16.05;8.73;;;;;;;18.44;83.85;100725.91;5087472;28;20077;-70
2023/09/10 10:05:49;;;;;;;19.20;8.82;;;;;;;18.41;83.84;100726.88;5105786;28;20073;-71
2023/09/10 10:08:15;;;;;;;21.00;9.63;;;;;;;18.39;83.79;100714.69;5105518;28;20027;-68
2023/09/10 10:10:48;;;;;;;16.38;8.85;;;;;;;18.38;83.55;100719.09;5105656;28;20024;-69
2023/09/10 10:13:18;;;;;;;18.48;8.35;;;;;;;18.37;83.48;100722.63;5105460;28;20024;-68
2023/09/10 10:15:49;;;;;;;13.63;8.48;;;;;;;18.30;83.70;100716.75;5087168;28;20020;-71
2023/09/10 10:18:19;;;;;;;28.40;10.02;;;;;;;18.32;83.78;100725.41;5105708;28;20020;-69
2023/09/10 10:20:49;;;;;;;17.70;9.13;;;;;;;18.37;83.88;100727.03;5105655;28;20102;-70
2023/09/10 10:23:16;;;;;;;24.85;10.13;;;;;;;18.32;83.91;100720.16;5105884;28;20069;-70
2023/09/10 10:25:44;;;;;;;12.77;8.02;;;;;;;18.32;83.89;100719.31;5105546;28;20027;-69
2023/09/10 10:28:10;;;;;;;17.52;9.35;;;;;;;18.36;84.13;100722.69;5086873;28;20024;-69
2023/09/10 10:31:15;;;;;;;14.57;7.55;;;;;;;18.44;84.04;100725.91;5086683;28;20019;-70
2023/09/10 10:33:56;;;;;;;12.02;8.65;;;;;;;18.46;84.05;100724.06;5105218;28;20020;-69
2023/09/10 10:36:50;;;;;;;26.23;9.67;;;;;;;18.38;83.84;100737.50;5087048;28;20020;-70
2023/09/10 10:39:16;;;;;;;17.70;8.82;;;;;;;18.33;83.88;100736.81;5105129;28;20027;-69
2023/09/10 10:41:50;;;;;;;20.55;9.25;;;;;;;18.29;84.07;100738.66;5105253;28;20042;-69
2023/09/10 10:44:32;;;;;;;17.70;8.90;;;;;;;18.33;83.59;100742.94;5105281;28;20020;-69
2023/09/10 10:47:17;;;;;;;17.13;10.48;;;;;;;18.29;83.70;100740.47;5104485;28;20043;-69
2023/09/10 10:49:54;;;;;;;16.95;8.10;;;;;;;18.21;83.95;100736.31;5105155;28;20262;-70
2023/09/10 10:52:30;;;;;;;11.88;7.90;;;;;;;18.28;83.81;100733.47;5086605;28;20027;-69
2023/09/10 10:54:56;;;;;;;13.48;8.10;;;;;;;18.33;84.22;100742.06;5085722;28;20059;-69
2023/09/10 10:57:23;;;;;;;11.98;8.23;;;;;;;18.29;84.13;100745.72;5104045;28;20050;-69
2023/09/10 10:59:49;;;;;;;17.02;8.27;;;;;;;18.36;83.99;100751.59;5104026;28;20471;-70
2023/09/10 11:02:22;;;;;;;16.02;8.60;;;;;;;18.36;84.07;100757.72;5103833;28;20024;-69
2023/09/10 11:04:59;;;;;;;10.55;7.18;;;;;;;18.30;84.15;100748.28;5103984;28;20023;-70
2023/09/10 11:07:26;;;;;;;11.95;8.00;;;;;;;18.36;84.00;100746.34;5103944;28;20024;-70
2023/09/10 11:09:52;;;;;;;12.13;8.05;;;;;;;18.40;83.66;100754.06;5103719;28;20103;-68
2023/09/10 11:12:17;;;;;;;9.98;7.70;;;;;;;18.37;83.76;100746.28;5103758;28;20087;-69
2023/09/10 11:15:01;;;;;;;12.65;7.10;;;;;;;18.36;83.87;100744.56;5103654;28;20024;-69